sensor_id;sensor_type;location;lat;lon;timestamp;P1;durP1;ratioP1;P2;durP2;ratioP2
19436;SDS011;9854;50.968;4.168;2022-12-11T10:34:49;48.67;;;27.77;;
19436;SDS011;9854;50.968;4.168;2022-12-11T10:37:26;49.67;;;28.50;;
19436;SDS011;9854;50.968;4.168;2022-12-11T10:39:52;84.50;;;41.77;;
19436;SDS011;9854;50.968;4.168;2022-12-11T10:42:18;147.30;;;75.77;;
19436;SDS011;9854;50.968;4.168;2022-12-11T10:44:58;65.80;;;36.00;;
19436;SDS011;9854;50.968;4.168;2022-12-11T10:47:26;55.77;;;30.43;;
19436;SDS011;9854;50.968;4.168;2022-12-11T10:49:53;54.07;;;30.07;;
19436;SDS011;9854;50.968;4.168;2022-12-11T10:54:54;59.43;;;34.80;;
19436;SDS011;9854;50.968;4.168;2022-12-11T10:57:25;56.43;;;30.17;;
19436;SDS011;9854;50.968;4.168;2022-12-11T10:59:53;53.10;;;29.70;;
19436;SDS011;9854;50.968;4.168;2022-12-11T11:02:26;53.90;;;29.30;;
19436;SDS011;9854;50.968;4.168;2022-12-11T11:04:56;50.67;;;28.63;;
19436;SDS011;9854;50.968;4.168;2022-12-11T11:07:24;52.33;;;28.03;;
19436;SDS011;9854;50.968;4.168;2022-12-11T11:12:46;51.50;;;28.30;;
19436;SDS011;9854;50.968;4.168;2022-12-11T11:17:46;49.87;;;25.60;;
19436;SDS011;9854;50.968;4.168;2022-12-11T11:20:20;42.83;;;24.33;;
19436;SDS011;9854;50.968;4.168;2022-12-11T11:22:51;45.47;;;25.20;;
19436;SDS011;9854;50.968;4.168;2022-12-11T11:25:23;42.70;;;24.67;;
19436;SDS011;9854;50.968;4.168;2022-12-11T11:27:55;45.10;;;24.40;;
19436;SDS011;9854;50.968;4.168;2022-12-11T11:30:24;44.27;;;24.50;;
19436;SDS011;9854;50.968;4.168;2022-12-11T11:32:53;40.73;;;24.80;;
19436;SDS011;9854;50.968;4.168;2022-12-11T11:35:24;42.07;;;23.57;;
19436;SDS011;9854;50.968;4.168;2022-12-11T11:40:43;41.27;;;24.03;;
19436;SDS011;9854;50.968;4.168;2022-12-11T11:43:24;45.50;;;26.63;;
19436;SDS011;9854;50.968;4.168;2022-12-11T11:46:05;49.03;;;25.30;;
19436;SDS011;9854;50.968;4.168;2022-12-11T11:51:28;38.45;;;23.83;;
19436;SDS011;9854;50.968;4.168;2022-12-11T11:53:59;39.07;;;21.33;;
19436;SDS011;9854;50.968;4.168;2022-12-11T11:56:33;47.93;;;26.27;;
19436;SDS011;9854;50.968;4.168;2022-12-11T12:01:30;45.97;;;25.30;;
19436;SDS011;9854;50.968;4.168;2022-12-11T12:03:57;43.63;;;25.33;;
19436;SDS011;9854;50.968;4.168;2022-12-11T12:09:09;42.50;;;24.33;;
19436;SDS011;9854;50.968;4.168;2022-12-11T12:14:37;45.43;;;25.40;;
19436;SDS011;9854;50.968;4.168;2022-12-11T12:34:21;37.20;;;21.77;;
19436;SDS011;9854;50.968;4.168;2022-12-11T12:48:26;32.90;;;21.20;;
19436;SDS011;9854;50.968;4.168;2022-12-11T12:50:53;34.70;;;22.17;;
19436;SDS011;9854;50.968;4.168;2022-12-11T12:53:21;33.37;;;21.07;;
19436;SDS011;9854;50.968;4.168;2022-12-11T12:55:48;39.80;;;23.30;;
19436;SDS011;9854;50.968;4.168;2022-12-11T12:58:23;39.87;;;24.40;;
19436;SDS011;9854;50.968;4.168;2022-12-11T13:00:51;42.20;;;24.87;;
19436;SDS011;9854;50.968;4.168;2022-12-11T13:03:18;40.73;;;26.00;;
19436;SDS011;9854;50.968;4.168;2022-12-11T13:06:00;44.43;;;27.03;;
19436;SDS011;9854;50.968;4.168;2022-12-11T13:08:27;41.30;;;25.43;;
19436;SDS011;9854;50.968;4.168;2022-12-11T13:11:05;40.83;;;26.57;;
19436;SDS011;9854;50.968;4.168;2022-12-11T13:13:37;44.87;;;26.20;;
19436;SDS011;9854;50.968;4.168;2022-12-11T13:18:41;50.23;;;28.63;;
19436;SDS011;9854;50.968;4.168;2022-12-11T13:21:42;49.47;;;28.43;;
19436;SDS011;9854;50.968;4.168;2022-12-11T13:26:39;52.27;;;27.97;;
19436;SDS011;9854;50.968;4.168;2022-12-11T13:29:05;46.57;;;28.13;;
19436;SDS011;9854;50.968;4.168;2022-12-11T13:31:55;46.47;;;27.80;;
19436;SDS011;9854;50.968;4.168;2022-12-11T13:34:52;49.43;;;27.90;;
19436;SDS011;9854;50.968;4.168;2022-12-11T13:37:31;48.63;;;28.17;;
19436;SDS011;9854;50.968;4.168;2022-12-11T13:43:15;50.60;;;29.20;;
19436;SDS011;9854;50.968;4.168;2022-12-11T13:45:48;49.37;;;28.63;;
19436;SDS011;9854;50.968;4.168;2022-12-11T13:48:20;53.97;;;31.90;;
19436;SDS011;9854;50.968;4.168;2022-12-11T13:50:56;55.37;;;31.27;;
19436;SDS011;9854;50.968;4.168;2022-12-11T13:53:23;54.20;;;29.67;;
19436;SDS011;9854;50.968;4.168;2022-12-11T13:55:58;55.60;;;31.90;;
19436;SDS011;9854;50.968;4.168;2022-12-11T13:58:26;56.43;;;30.80;;
19436;SDS011;9854;50.968;4.168;2022-12-11T14:01:11;60.13;;;31.77;;
19436;SDS011;9854;50.968;4.168;2022-12-11T14:03:42;53.73;;;29.27;;
19436;SDS011;9854;50.968;4.168;2022-12-11T14:06:20;51.73;;;29.03;;
19436;SDS011;9854;50.968;4.168;2022-12-11T14:08:47;71.67;;;38.43;;
19436;SDS011;9854;50.968;4.168;2022-12-11T14:11:26;67.67;;;37.87;;
19436;SDS011;9854;50.968;4.168;2022-12-11T14:14:06;69.33;;;38.23;;
19436;SDS011;9854;50.968;4.168;2022-12-11T14:16:40;64.17;;;34.53;;
19436;SDS011;9854;50.968;4.168;2022-12-11T14:19:06;68.60;;;37.07;;
19436;SDS011;9854;50.968;4.168;2022-12-11T14:21:34;70.90;;;37.63;;
19436;SDS011;9854;50.968;4.168;2022-12-11T14:24:01;63.13;;;36.87;;
19436;SDS011;9854;50.968;4.168;2022-12-11T14:26:29;69.83;;;36.97;;
19436;SDS011;9854;50.968;4.168;2022-12-11T14:28:57;60.80;;;34.10;;
19436;SDS011;9854;50.968;4.168;2022-12-11T14:31:27;65.67;;;35.00;;
19436;SDS011;9854;50.968;4.168;2022-12-11T14:34:06;67.80;;;36.00;;
19436;SDS011;9854;50.968;4.168;2022-12-11T14:36:38;67.63;;;37.10;;
19436;SDS011;9854;50.968;4.168;2022-12-11T14:41:41;68.20;;;37.23;;
19436;SDS011;9854;50.968;4.168;2022-12-11T14:44:14;69.10;;;35.60;;
19436;SDS011;9854;50.968;4.168;2022-12-11T14:46:45;69.83;;;35.07;;
19436;SDS011;9854;50.968;4.168;2022-12-11T14:49:45;64.53;;;33.53;;
19436;SDS011;9854;50.968;4.168;2022-12-11T14:52:29;58.27;;;30.73;;
19436;SDS011;9854;50.968;4.168;2022-12-11T14:55:19;61.63;;;32.27;;
19436;SDS011;9854;50.968;4.168;2022-12-11T14:57:49;56.33;;;30.27;;
19436;SDS011;9854;50.968;4.168;2022-12-11T15:00:26;54.30;;;32.28;;
19436;SDS011;9854;50.968;4.168;2022-12-11T15:05:25;62.10;;;33.27;;
19436;SDS011;9854;50.968;4.168;2022-12-11T15:07:55;64.33;;;33.13;;
19436;SDS011;9854;50.968;4.168;2022-12-11T15:10:25;59.47;;;30.80;;
19436;SDS011;9854;50.968;4.168;2022-12-11T15:12:55;56.13;;;31.70;;
19436;SDS011;9854;50.968;4.168;2022-12-11T15:15:22;58.10;;;30.97;;
19436;SDS011;9854;50.968;4.168;2022-12-11T15:17:48;56.57;;;29.73;;
19436;SDS011;9854;50.968;4.168;2022-12-11T15:20:34;55.83;;;31.88;;
19436;SDS011;9854;50.968;4.168;2022-12-11T15:23:00;56.07;;;31.67;;
19436;SDS011;9854;50.968;4.168;2022-12-11T15:25:27;54.83;;;31.57;;
19436;SDS011;9854;50.968;4.168;2022-12-11T15:27:57;54.63;;;31.77;;
19436;SDS011;9854;50.968;4.168;2022-12-11T15:30:25;52.83;;;30.20;;
19436;SDS011;9854;50.968;4.168;2022-12-11T15:35:33;60.20;;;32.37;;
19436;SDS011;9854;50.968;4.168;2022-12-11T15:38:00;65.03;;;33.17;;
19436;SDS011;9854;50.968;4.168;2022-12-11T15:40:26;54.20;;;31.60;;
19436;SDS011;9854;50.968;4.168;2022-12-11T15:42:52;67.70;;;39.23;;
19436;SDS011;9854;50.968;4.168;2022-12-11T15:45:23;56.17;;;31.57;;
19436;SDS011;9854;50.968;4.168;2022-12-11T15:47:52;74.90;;;42.63;;
19436;SDS011;9854;50.968;4.168;2022-12-11T15:52:47;50.00;;;31.47;;
19436;SDS011;9854;50.968;4.168;2022-12-11T15:55:13;58.70;;;34.33;;
19436;SDS011;9854;50.968;4.168;2022-12-11T15:57:50;55.40;;;31.97;;
19436;SDS011;9854;50.968;4.168;2022-12-11T16:00:19;60.10;;;34.47;;
19436;SDS011;9854;50.968;4.168;2022-12-11T16:02:46;61.33;;;34.47;;
19436;SDS011;9854;50.968;4.168;2022-12-11T16:05:11;58.63;;;33.10;;
19436;SDS011;9854;50.968;4.168;2022-12-11T16:07:38;62.20;;;37.07;;
19436;SDS011;9854;50.968;4.168;2022-12-11T16:10:04;66.33;;;40.80;;
19436;SDS011;9854;50.968;4.168;2022-12-11T16:12:30;63.37;;;36.97;;
19436;SDS011;9854;50.968;4.168;2022-12-11T16:14:56;75.87;;;44.03;;
19436;SDS011;9854;50.968;4.168;2022-12-11T16:17:22;69.87;;;39.27;;
19436;SDS011;9854;50.968;4.168;2022-12-11T16:19:47;65.50;;;36.70;;
19436;SDS011;9854;50.968;4.168;2022-12-11T16:22:13;66.93;;;37.30;;
19436;SDS011;9854;50.968;4.168;2022-12-11T16:24:39;67.40;;;39.70;;
19436;SDS011;9854;50.968;4.168;2022-12-11T16:27:06;72.00;;;41.97;;
19436;SDS011;9854;50.968;4.168;2022-12-11T16:29:37;68.67;;;39.73;;
19436;SDS011;9854;50.968;4.168;2022-12-11T16:32:05;68.13;;;39.07;;
19436;SDS011;9854;50.968;4.168;2022-12-11T16:34:32;68.40;;;37.70;;
19436;SDS011;9854;50.968;4.168;2022-12-11T16:36:59;64.53;;;37.47;;
19436;SDS011;9854;50.968;4.168;2022-12-11T16:39:25;61.20;;;35.13;;
19436;SDS011;9854;50.968;4.168;2022-12-11T16:41:51;58.87;;;33.10;;
19436;SDS011;9854;50.968;4.168;2022-12-11T16:44:21;58.73;;;32.63;;
19436;SDS011;9854;50.968;4.168;2022-12-11T16:46:48;58.97;;;34.87;;
19436;SDS011;9854;50.968;4.168;2022-12-11T16:49:15;58.93;;;34.70;;
19436;SDS011;9854;50.968;4.168;2022-12-11T16:51:40;60.53;;;33.33;;
19436;SDS011;9854;50.968;4.168;2022-12-11T16:54:07;67.47;;;36.13;;
19436;SDS011;9854;50.968;4.168;2022-12-11T16:56:33;64.37;;;35.93;;
19436;SDS011;9854;50.968;4.168;2022-12-11T16:59:02;63.07;;;37.30;;
19436;SDS011;9854;50.968;4.168;2022-12-11T17:01:28;68.37;;;37.63;;
19436;SDS011;9854;50.968;4.168;2022-12-11T17:03:54;65.78;;;38.00;;
19436;SDS011;9854;50.968;4.168;2022-12-11T17:06:20;60.27;;;37.37;;
19436;SDS011;9854;50.968;4.168;2022-12-11T17:08:46;65.20;;;36.47;;
19436;SDS011;9854;50.968;4.168;2022-12-11T17:11:13;59.20;;;34.10;;
19436;SDS011;9854;50.968;4.168;2022-12-11T17:13:41;57.60;;;33.70;;
19436;SDS011;9854;50.968;4.168;2022-12-11T17:16:08;58.50;;;32.63;;
19436;SDS011;9854;50.968;4.168;2022-12-11T17:18:36;48.23;;;30.27;;
19436;SDS011;9854;50.968;4.168;2022-12-11T17:21:06;56.67;;;31.93;;
19436;SDS011;9854;50.968;4.168;2022-12-11T17:23:32;52.93;;;30.97;;
19436;SDS011;9854;50.968;4.168;2022-12-11T17:25:59;48.33;;;29.77;;
19436;SDS011;9854;50.968;4.168;2022-12-11T17:28:26;42.50;;;29.40;;
19436;SDS011;9854;50.968;4.168;2022-12-11T17:30:56;48.73;;;29.67;;
19436;SDS011;9854;50.968;4.168;2022-12-11T17:33:22;47.33;;;30.57;;
19436;SDS011;9854;50.968;4.168;2022-12-11T17:35:48;48.20;;;33.13;;
19436;SDS011;9854;50.968;4.168;2022-12-11T17:38:14;53.83;;;34.93;;
19436;SDS011;9854;50.968;4.168;2022-12-11T17:40:41;49.60;;;31.53;;
19436;SDS011;9854;50.968;4.168;2022-12-11T17:43:08;55.53;;;34.20;;
19436;SDS011;9854;50.968;4.168;2022-12-11T17:45:41;54.53;;;33.30;;
19436;SDS011;9854;50.968;4.168;2022-12-11T17:48:07;60.53;;;37.33;;
19436;SDS011;9854;50.968;4.168;2022-12-11T17:50:34;60.27;;;39.80;;
19436;SDS011;9854;50.968;4.168;2022-12-11T17:52:59;59.03;;;38.33;;
19436;SDS011;9854;50.968;4.168;2022-12-11T17:55:25;63.33;;;37.13;;
19436;SDS011;9854;50.968;4.168;2022-12-11T17:57:50;50.67;;;34.03;;
19436;SDS011;9854;50.968;4.168;2022-12-11T18:00:16;80.33;;;46.80;;
19436;SDS011;9854;50.968;4.168;2022-12-11T18:02:42;69.53;;;42.33;;
19436;SDS011;9854;50.968;4.168;2022-12-11T18:05:07;64.03;;;40.67;;
19436;SDS011;9854;50.968;4.168;2022-12-11T18:07:36;49.03;;;33.60;;
19436;SDS011;9854;50.968;4.168;2022-12-11T18:10:03;60.17;;;37.70;;
19436;SDS011;9854;50.968;4.168;2022-12-11T18:12:29;53.80;;;36.37;;
19436;SDS011;9854;50.968;4.168;2022-12-11T18:14:58;50.60;;;33.13;;
19436;SDS011;9854;50.968;4.168;2022-12-11T18:17:24;42.90;;;29.73;;
19436;SDS011;9854;50.968;4.168;2022-12-11T18:19:50;37.30;;;26.37;;
19436;SDS011;9854;50.968;4.168;2022-12-11T18:22:16;38.33;;;26.33;;
19436;SDS011;9854;50.968;4.168;2022-12-11T18:24:41;40.37;;;26.27;;
19436;SDS011;9854;50.968;4.168;2022-12-11T18:27:07;37.10;;;26.40;;
19436;SDS011;9854;50.968;4.168;2022-12-11T18:29:35;32.47;;;22.13;;
19436;SDS011;9854;50.968;4.168;2022-12-11T18:32:00;37.13;;;23.70;;
19436;SDS011;9854;50.968;4.168;2022-12-11T18:34:26;33.60;;;22.73;;
19436;SDS011;9854;50.968;4.168;2022-12-11T18:36:52;33.30;;;23.97;;
19436;SDS011;9854;50.968;4.168;2022-12-11T18:39:17;32.37;;;20.93;;
19436;SDS011;9854;50.968;4.168;2022-12-11T18:41:43;32.20;;;21.70;;
19436;SDS011;9854;50.968;4.168;2022-12-11T18:44:09;31.13;;;21.57;;
19436;SDS011;9854;50.968;4.168;2022-12-11T18:46:36;28.63;;;20.90;;
19436;SDS011;9854;50.968;4.168;2022-12-11T18:49:03;31.70;;;22.50;;
19436;SDS011;9854;50.968;4.168;2022-12-11T18:51:29;30.60;;;21.30;;
19436;SDS011;9854;50.968;4.168;2022-12-11T18:53:55;31.17;;;21.53;;
19436;SDS011;9854;50.968;4.168;2022-12-11T18:56:21;33.10;;;22.50;;
19436;SDS011;9854;50.968;4.168;2022-12-11T18:58:47;32.90;;;21.57;;
19436;SDS011;9854;50.968;4.168;2022-12-11T19:01:17;32.37;;;22.37;;
19436;SDS011;9854;50.968;4.168;2022-12-11T19:03:48;28.90;;;19.77;;
19436;SDS011;9854;50.968;4.168;2022-12-11T19:06:16;30.77;;;19.93;;
19436;SDS011;9854;50.968;4.168;2022-12-11T19:08:44;29.73;;;20.80;;
19436;SDS011;9854;50.968;4.168;2022-12-11T19:11:14;47.00;;;29.57;;
19436;SDS011;9854;50.968;4.168;2022-12-11T19:13:40;33.20;;;22.13;;
19436;SDS011;9854;50.968;4.168;2022-12-11T19:16:06;29.83;;;21.37;;
19436;SDS011;9854;50.968;4.168;2022-12-11T19:18:32;34.03;;;22.57;;
19436;SDS011;9854;50.968;4.168;2022-12-11T19:20:58;30.77;;;21.77;;
19436;SDS011;9854;50.968;4.168;2022-12-11T19:23:23;33.57;;;21.67;;
19436;SDS011;9854;50.968;4.168;2022-12-11T19:25:49;28.60;;;20.43;;
19436;SDS011;9854;50.968;4.168;2022-12-11T19:28:15;33.63;;;21.20;;
19436;SDS011;9854;50.968;4.168;2022-12-11T19:30:45;29.23;;;20.63;;
19436;SDS011;9854;50.968;4.168;2022-12-11T19:33:13;31.83;;;21.57;;
19436;SDS011;9854;50.968;4.168;2022-12-11T19:35:39;31.13;;;23.03;;
19436;SDS011;9854;50.968;4.168;2022-12-11T19:38:04;33.70;;;22.67;;
19436;SDS011;9854;50.968;4.168;2022-12-11T19:40:32;32.90;;;23.03;;
19436;SDS011;9854;50.968;4.168;2022-12-11T19:42:58;30.03;;;20.90;;
19436;SDS011;9854;50.968;4.168;2022-12-11T19:45:24;36.07;;;24.97;;
19436;SDS011;9854;50.968;4.168;2022-12-11T19:47:49;37.07;;;22.67;;
19436;SDS011;9854;50.968;4.168;2022-12-11T19:50:15;36.07;;;24.67;;
19436;SDS011;9854;50.968;4.168;2022-12-11T19:52:41;34.00;;;23.20;;
19436;SDS011;9854;50.968;4.168;2022-12-11T19:55:06;34.53;;;24.73;;
19436;SDS011;9854;50.968;4.168;2022-12-11T19:57:33;31.60;;;22.40;;
19436;SDS011;9854;50.968;4.168;2022-12-11T19:59:59;29.03;;;20.87;;
19436;SDS011;9854;50.968;4.168;2022-12-11T20:02:24;33.20;;;23.10;;
19436;SDS011;9854;50.968;4.168;2022-12-11T20:04:50;31.13;;;21.10;;
19436;SDS011;9854;50.968;4.168;2022-12-11T20:07:16;28.90;;;20.10;;
19436;SDS011;9854;50.968;4.168;2022-12-11T20:09:43;29.37;;;20.90;;
19436;SDS011;9854;50.968;4.168;2022-12-11T20:12:08;29.90;;;19.70;;
19436;SDS011;9854;50.968;4.168;2022-12-11T20:14:34;32.47;;;20.93;;
19436;SDS011;9854;50.968;4.168;2022-12-11T20:17:01;31.83;;;20.90;;
19436;SDS011;9854;50.968;4.168;2022-12-11T20:19:27;27.93;;;19.10;;
19436;SDS011;9854;50.968;4.168;2022-12-11T20:21:53;28.30;;;19.77;;
19436;SDS011;9854;50.968;4.168;2022-12-11T20:24:19;35.87;;;21.37;;
19436;SDS011;9854;50.968;4.168;2022-12-11T20:26:45;32.17;;;19.70;;
19436;SDS011;9854;50.968;4.168;2022-12-11T20:29:11;33.43;;;20.70;;
19436;SDS011;9854;50.968;4.168;2022-12-11T20:31:38;33.13;;;19.57;;
19436;SDS011;9854;50.968;4.168;2022-12-11T20:34:05;32.63;;;19.70;;
19436;SDS011;9854;50.968;4.168;2022-12-11T20:36:31;33.57;;;20.00;;
19436;SDS011;9854;50.968;4.168;2022-12-11T20:38:57;30.80;;;20.67;;
19436;SDS011;9854;50.968;4.168;2022-12-11T20:41:24;30.00;;;18.83;;
19436;SDS011;9854;50.968;4.168;2022-12-11T20:43:50;33.40;;;20.93;;
19436;SDS011;9854;50.968;4.168;2022-12-11T20:46:18;30.40;;;18.77;;
19436;SDS011;9854;50.968;4.168;2022-12-11T20:48:45;38.50;;;21.07;;
19436;SDS011;9854;50.968;4.168;2022-12-11T20:51:11;36.60;;;21.53;;
19436;SDS011;9854;50.968;4.168;2022-12-11T20:53:39;38.77;;;19.70;;
19436;SDS011;9854;50.968;4.168;2022-12-11T20:56:12;31.00;;;19.27;;
19436;SDS011;9854;50.968;4.168;2022-12-11T20:58:41;34.23;;;20.13;;
19436;SDS011;9854;50.968;4.168;2022-12-11T21:01:14;30.23;;;19.80;;
19436;SDS011;9854;50.968;4.168;2022-12-11T21:03:42;30.97;;;18.77;;
19436;SDS011;9854;50.968;4.168;2022-12-11T21:06:16;29.33;;;17.33;;
19436;SDS011;9854;50.968;4.168;2022-12-11T21:08:46;33.13;;;18.43;;
19436;SDS011;9854;50.968;4.168;2022-12-11T21:11:11;34.93;;;21.33;;
19436;SDS011;9854;50.968;4.168;2022-12-11T21:13:37;53.33;;;29.23;;
19436;SDS011;9854;50.968;4.168;2022-12-11T21:16:04;38.93;;;24.77;;
19436;SDS011;9854;50.968;4.168;2022-12-11T21:18:30;35.47;;;22.13;;
19436;SDS011;9854;50.968;4.168;2022-12-11T21:20:56;30.93;;;19.57;;
19436;SDS011;9854;50.968;4.168;2022-12-11T21:23:23;34.67;;;21.40;;
19436;SDS011;9854;50.968;4.168;2022-12-11T21:25:49;31.33;;;19.40;;
19436;SDS011;9854;50.968;4.168;2022-12-11T21:28:20;33.20;;;18.70;;
19436;SDS011;9854;50.968;4.168;2022-12-11T21:30:46;29.87;;;19.23;;
19436;SDS011;9854;50.968;4.168;2022-12-11T21:33:12;32.73;;;21.43;;
19436;SDS011;9854;50.968;4.168;2022-12-11T21:35:38;32.53;;;20.17;;
19436;SDS011;9854;50.968;4.168;2022-12-11T21:38:03;37.70;;;21.07;;
19436;SDS011;9854;50.968;4.168;2022-12-11T21:40:29;32.53;;;20.47;;
19436;SDS011;9854;50.968;4.168;2022-12-11T21:42:55;34.13;;;18.90;;
19436;SDS011;9854;50.968;4.168;2022-12-11T21:45:21;34.03;;;20.83;;
19436;SDS011;9854;50.968;4.168;2022-12-11T21:47:46;29.80;;;18.47;;
19436;SDS011;9854;50.968;4.168;2022-12-11T21:50:12;35.07;;;19.83;;
19436;SDS011;9854;50.968;4.168;2022-12-11T21:52:38;35.00;;;19.50;;
19436;SDS011;9854;50.968;4.168;2022-12-11T21:55:05;33.03;;;18.63;;
19436;SDS011;9854;50.968;4.168;2022-12-11T21:57:31;35.33;;;19.83;;
19436;SDS011;9854;50.968;4.168;2022-12-11T21:59:57;31.17;;;19.23;;
19436;SDS011;9854;50.968;4.168;2022-12-11T22:02:23;33.07;;;19.57;;
19436;SDS011;9854;50.968;4.168;2022-12-11T22:04:48;34.33;;;18.90;;
19436;SDS011;9854;50.968;4.168;2022-12-11T22:07:14;38.67;;;18.90;;
19436;SDS011;9854;50.968;4.168;2022-12-11T22:09:40;31.47;;;18.77;;
19436;SDS011;9854;50.968;4.168;2022-12-11T22:12:06;34.20;;;19.87;;
19436;SDS011;9854;50.968;4.168;2022-12-11T22:14:33;33.30;;;19.10;;
19436;SDS011;9854;50.968;4.168;2022-12-11T22:17:00;32.13;;;18.20;;
19436;SDS011;9854;50.968;4.168;2022-12-11T22:19:25;32.50;;;19.40;;
19436;SDS011;9854;50.968;4.168;2022-12-11T22:21:51;33.53;;;20.10;;
19436;SDS011;9854;50.968;4.168;2022-12-11T22:24:17;36.23;;;20.17;;
19436;SDS011;9854;50.968;4.168;2022-12-11T22:26:42;33.13;;;18.67;;
19436;SDS011;9854;50.968;4.168;2022-12-11T22:29:08;32.60;;;19.03;;
19436;SDS011;9854;50.968;4.168;2022-12-11T22:31:37;37.00;;;19.47;;
19436;SDS011;9854;50.968;4.168;2022-12-11T22:34:02;30.63;;;18.60;;
19436;SDS011;9854;50.968;4.168;2022-12-11T22:36:28;29.10;;;17.93;;
19436;SDS011;9854;50.968;4.168;2022-12-11T22:38:54;33.00;;;19.23;;
19436;SDS011;9854;50.968;4.168;2022-12-11T22:43:50;33.97;;;17.90;;
19436;SDS011;9854;50.968;4.168;2022-12-11T22:46:17;32.87;;;18.47;;
19436;SDS011;9854;50.968;4.168;2022-12-11T22:48:44;35.47;;;19.77;;
19436;SDS011;9854;50.968;4.168;2022-12-11T22:51:10;33.90;;;19.97;;
19436;SDS011;9854;50.968;4.168;2022-12-11T22:53:36;33.77;;;20.27;;
19436;SDS011;9854;50.968;4.168;2022-12-11T22:56:05;31.03;;;20.03;;
19436;SDS011;9854;50.968;4.168;2022-12-11T22:58:32;32.13;;;19.63;;
19436;SDS011;9854;50.968;4.168;2022-12-11T23:00:58;33.27;;;19.23;;
19436;SDS011;9854;50.968;4.168;2022-12-11T23:03:24;45.13;;;24.03;;
19436;SDS011;9854;50.968;4.168;2022-12-11T23:05:49;38.63;;;20.70;;
19436;SDS011;9854;50.968;4.168;2022-12-11T23:08:15;40.57;;;21.13;;
19436;SDS011;9854;50.968;4.168;2022-12-11T23:10:40;40.40;;;21.90;;
19436;SDS011;9854;50.968;4.168;2022-12-11T23:13:06;37.57;;;21.27;;
19436;SDS011;9854;50.968;4.168;2022-12-11T23:15:32;40.60;;;21.90;;
19436;SDS011;9854;50.968;4.168;2022-12-11T23:17:58;38.23;;;21.73;;
19436;SDS011;9854;50.968;4.168;2022-12-11T23:20:24;37.67;;;22.07;;
19436;SDS011;9854;50.968;4.168;2022-12-11T23:22:50;38.17;;;21.00;;
19436;SDS011;9854;50.968;4.168;2022-12-11T23:25:15;39.20;;;20.67;;
19436;SDS011;9854;50.968;4.168;2022-12-11T23:27:41;43.83;;;21.87;;
19436;SDS011;9854;50.968;4.168;2022-12-11T23:30:07;35.37;;;21.73;;
19436;SDS011;9854;50.968;4.168;2022-12-11T23:32:34;39.67;;;21.10;;
19436;SDS011;9854;50.968;4.168;2022-12-11T23:34:59;37.77;;;20.40;;
19436;SDS011;9854;50.968;4.168;2022-12-11T23:37:25;42.63;;;21.17;;
19436;SDS011;9854;50.968;4.168;2022-12-11T23:39:51;41.23;;;21.13;;
19436;SDS011;9854;50.968;4.168;2022-12-11T23:42:16;35.87;;;20.33;;
19436;SDS011;9854;50.968;4.168;2022-12-11T23:44:42;40.60;;;22.13;;
19436;SDS011;9854;50.968;4.168;2022-12-11T23:47:08;35.70;;;20.10;;
19436;SDS011;9854;50.968;4.168;2022-12-11T23:49:33;35.47;;;20.63;;
19436;SDS011;9854;50.968;4.168;2022-12-11T23:51:59;36.17;;;19.97;;
19436;SDS011;9854;50.968;4.168;2022-12-11T23:54:24;37.23;;;21.10;;
19436;SDS011;9854;50.968;4.168;2022-12-11T23:56:50;37.90;;;20.53;;
19436;SDS011;9854;50.968;4.168;2022-12-11T23:59:16;35.10;;;20.63;;
